Terminal Aerodrome Forecast
Issued by NWS Buffalo, NY

Home | Current Version | Previous Version | Text Only | Print | Product List | Glossary On
Versions: 1 2 3 4 5 6 7 8 9 10 11 12 13 14 15 16 17 18 19 20 21 22 23 24 25 26 27
000
FTUS41 KBUF 251500 AAA
TAFBUF
TAF AMD
KBUF 251505Z 2515/2612 23012G20KT P6SM FEW020 SCT035 BKN120
     FM251600 23018G30KT P6SM FEW025 BKN035 BKN100
     FM251800 25018G34KT P6SM SCT025 BKN035
      TEMPO 2518/2521 BKN025
     FM252100 25014G27KT P6SM SCT040 BKN200
     FM260200 27012KT P6SM SCT060
     FM260800 27012KT P6SM BKN040=

USA.gov is the U.S. government's official web portal to all federal, state and local government web resources and services.